This is the latest recevied weather packets stored in our database for station/object OE5RBO. If no packets are shown the sender has not sent any weather packets the latest 10 day(s).
| Time | Temp. | Humidity | Pressure | Rain* | Wind** | Luminosity | Snow |
|---|---|---|---|---|---|---|---|
| 1778067577 | 23.89° C | 53% | 1004.4 hPa | 0 mm | - | - | - |
| 1778066976 | 23.33° C | 54% | 1004.6 hPa | 0 mm | - | - | - |
| 1778066376 | 22.78° C | 53% | 1004.8 hPa | 0 mm | - | - | - |
| 1778065776 | 22.78° C | 55% | 1004.9 hPa | 0 mm | - | - | - |
| 1778064575 | 21.67° C | 57% | 1005.4 hPa | 0 mm | - | - | - |
| 1778063975 | 21.67° C | 56% | 1005.6 hPa | 0 mm | - | - | - |
| 1778063374 | 21.67° C | 56% | 1005.6 hPa | 0 mm | - | - | - |
| 1778062774 | 21.11° C | 59% | 1005.6 hPa | 0 mm | - | - | - |
| 1778062173 | 21.11° C | 63% | 1005.7 hPa | 0 mm | - | - | - |
| 1778061573 | 20.56° C | 65% | 1005.8 hPa | 0 mm | - | - | - |
| 1778060973 | 20° C | 64% | 1006 hPa | 0 mm | - | - | - |
| 1778060373 | 20° C | 69% | 1006 hPa | 0 mm | - | - | - |
| 1778059772 | 18.89° C | 72% | 1006 hPa | 0 mm | - | - | - |
| 1778059172 | 19.44° C | 69% | 1006.1 hPa | 0 mm | - | - | - |
| 1778058571 | 20° C | 67% | 1006 hPa | 0 mm | - | - | - |
| 1778057971 | 20° C | 70% | 1006 hPa | 0 mm | - | - | - |
| 1778056770 | 19.44° C | 66% | 1006.2 hPa | 0 mm | - | - | - |
| 1778055570 | 20.56° C | 63% | 1006.2 hPa | 0 mm | - | - | - |
| 1778054969 | 20.56° C | 62% | 1006.3 hPa | 0 mm | - | - | - |
| 1778054369 | 20° C | 64% | 1006.5 hPa | 0 mm | - | - | - |
| 1778053769 | 22.22° C | 60% | 1006.3 hPa | 0 mm | - | - | - |
| 1778053168 | 23.33° C | 57% | 1006.5 hPa | 0 mm | - | - | - |
| 1778052568 | 23.33° C | 58% | 1006.6 hPa | 0 mm | - | - | - |
| 1778051967 | 22.22° C | 65% | 1006.7 hPa | 0 mm | - | - | - |
| 1778051367 | 21.11° C | 71% | 1006.9 hPa | 0 mm | - | - | - |
* Rain since midnight (hover to see other rain measurements)
** Current wind speed in m/s (hover to see current wind gust speed)